createdAt,value
2018-07-19T00:00:56.762Z,22.98
2018-07-19T00:03:24.641Z,22.76
2018-07-19T00:05:52.547Z,22.84
2018-07-19T00:08:20.429Z,23.15
2018-07-19T00:10:48.330Z,22.89
2018-07-19T00:13:16.301Z,23.03
2018-07-19T00:15:44.188Z,22.79
2018-07-19T00:18:12.134Z,22.98
2018-07-19T00:20:40.059Z,23.05
2018-07-19T00:23:07.931Z,22.94
2018-07-19T00:25:35.757Z,22.93
2018-07-19T00:28:03.659Z,22.89
2018-07-19T00:30:31.588Z,22.81
2018-07-19T00:32:59.469Z,22.85
2018-07-19T00:35:27.363Z,22.79
2018-07-19T00:37:55.270Z,22.86
2018-07-19T00:40:23.221Z,22.79
2018-07-19T00:42:51.146Z,22.77
2018-07-19T00:45:19.029Z,22.93
2018-07-19T00:47:46.899Z,22.72
2018-07-19T00:50:14.785Z,22.97
2018-07-19T00:52:42.638Z,22.72
2018-07-19T00:55:11.367Z,22.82
2018-07-19T00:57:39.270Z,22.85
2018-07-19T01:00:07.239Z,23.02
2018-07-19T01:02:35.151Z,22.78
2018-07-19T01:05:03.058Z,23.00
2018-07-19T01:07:30.942Z,22.86
2018-07-19T01:09:58.814Z,22.95
2018-07-19T01:12:26.710Z,22.85
2018-07-19T01:14:54.598Z,23.09
2018-07-19T01:17:22.489Z,23.11
2018-07-19T01:19:50.439Z,23.14
2018-07-19T01:22:18.316Z,23.09
2018-07-19T01:24:46.194Z,22.92
2018-07-19T01:27:14.070Z,23.34
2018-07-19T01:29:41.946Z,23.12
2018-07-19T01:32:09.832Z,23.00
2018-07-19T01:34:37.711Z,22.94
2018-07-19T01:37:05.600Z,22.77
2018-07-19T01:39:33.534Z,23.07
2018-07-19T01:42:22.382Z,23.02
2018-07-19T01:44:50.229Z,22.80
2018-07-19T01:47:18.196Z,22.63
2018-07-19T01:49:46.561Z,22.72
2018-07-19T01:52:14.560Z,22.75
2018-07-19T01:54:42.449Z,22.68
2018-07-19T01:57:11.567Z,22.86
2018-07-19T01:59:40.145Z,22.61
2018-07-19T02:02:08.178Z,22.83
2018-07-19T02:04:36.067Z,22.83
2018-07-19T02:07:04.042Z,22.61
2018-07-19T02:09:32.006Z,22.54
2018-07-19T02:12:00.206Z,22.54
2018-07-19T02:14:28.154Z,22.77
2018-07-19T02:16:56.064Z,22.82
2018-07-19T02:19:23.903Z,22.66
2018-07-19T02:21:51.778Z,22.72
2018-07-19T02:24:19.641Z,22.66
2018-07-19T02:26:47.749Z,22.70
2018-07-19T02:29:15.613Z,22.44
2018-07-19T02:31:43.453Z,22.68
2018-07-19T02:34:11.314Z,22.35
2018-07-19T02:36:39.149Z,22.42
2018-07-19T02:39:10.602Z,22.41
2018-07-19T02:41:38.897Z,22.64
2018-07-19T02:44:07.990Z,22.62
2018-07-19T02:46:36.582Z,22.61
2018-07-19T02:49:04.454Z,22.84
2018-07-19T02:51:32.358Z,22.70
2018-07-19T02:54:00.274Z,22.53
2018-07-19T02:56:28.133Z,22.67
2018-07-19T02:58:56.018Z,22.70
2018-07-19T03:01:23.860Z,22.54
2018-07-19T03:03:51.734Z,22.90
2018-07-19T03:06:19.602Z,22.51
2018-07-19T03:08:47.869Z,23.02
2018-07-19T03:11:15.755Z,23.62
2018-07-19T03:13:43.577Z,23.29
2018-07-19T03:16:11.490Z,22.96
2018-07-19T03:18:39.325Z,22.89
2018-07-19T03:21:07.193Z,23.14
2018-07-19T03:23:35.085Z,23.45
2018-07-19T03:26:02.964Z,23.50
2018-07-19T03:28:30.874Z,23.80
2018-07-19T03:30:58.736Z,23.15
2018-07-19T03:33:26.573Z,23.27
2018-07-19T03:35:54.413Z,23.15
2018-07-19T03:38:22.251Z,23.16
2018-07-19T03:40:50.189Z,23.17
2018-07-19T03:43:18.078Z,23.14
2018-07-19T03:45:45.927Z,23.43
2018-07-19T03:48:13.890Z,23.31
2018-07-19T03:50:41.794Z,23.60
2018-07-19T03:53:09.666Z,23.61
2018-07-19T03:55:37.506Z,23.66
2018-07-19T03:58:05.473Z,23.34
2018-07-19T04:00:33.389Z,23.39
2018-07-19T04:03:01.316Z,23.33
2018-07-19T04:05:29.199Z,23.58
2018-07-19T04:07:57.091Z,23.51
2018-07-19T04:10:24.925Z,23.51
2018-07-19T04:12:52.821Z,23.47
2018-07-19T04:15:20.691Z,23.12
2018-07-19T04:17:54.209Z,23.28
2018-07-19T04:20:23.269Z,23.55
2018-07-19T04:22:51.466Z,23.48
2018-07-19T04:25:19.361Z,23.81
2018-07-19T04:27:47.278Z,23.72
2018-07-19T04:30:15.149Z,23.45
2018-07-19T04:32:43.098Z,23.54
2018-07-19T04:35:10.948Z,23.77
2018-07-19T04:37:38.815Z,23.82
2018-07-19T04:40:06.737Z,23.90
2018-07-19T04:42:34.913Z,24.38
2018-07-19T04:45:03.265Z,24.65
2018-07-19T04:47:31.114Z,24.35
2018-07-19T04:49:58.981Z,24.01
2018-07-19T04:52:26.829Z,24.21
2018-07-19T04:54:54.703Z,24.12
2018-07-19T04:57:22.801Z,24.45
2018-07-19T04:59:50.632Z,24.60
2018-07-19T05:02:18.614Z,24.54
2018-07-19T05:04:46.473Z,24.93
2018-07-19T05:07:14.334Z,24.22
2018-07-19T05:09:42.218Z,24.28
2018-07-19T05:12:10.370Z,24.84
2018-07-19T05:14:38.221Z,25.26
2018-07-19T05:17:06.065Z,25.47
2018-07-19T05:19:34.226Z,24.58
2018-07-19T05:22:02.129Z,24.79
2018-07-19T05:24:30.060Z,24.85
2018-07-19T05:26:57.934Z,24.77
2018-07-19T05:29:25.828Z,25.12
2018-07-19T05:31:53.695Z,24.62
2018-07-19T05:34:21.591Z,24.86
2018-07-19T05:36:49.602Z,24.24
2018-07-19T05:39:17.469Z,24.90
2018-07-19T05:41:45.337Z,25.09
2018-07-19T05:44:13.221Z,24.50
2018-07-19T05:46:41.238Z,24.68
2018-07-19T05:49:09.131Z,24.82
2018-07-19T05:51:37.051Z,24.62
2018-07-19T05:54:05.159Z,25.17
2018-07-19T05:56:33.034Z,25.43
2018-07-19T05:59:00.894Z,25.59
2018-07-19T06:01:28.824Z,26.18
2018-07-19T06:03:56.776Z,26.41
2018-07-19T06:06:24.634Z,26.02
2018-07-19T06:08:52.571Z,26.09
2018-07-19T06:11:20.461Z,26.09
2018-07-19T06:13:48.660Z,26.66
2018-07-19T06:16:17.289Z,26.55
2018-07-19T06:18:45.275Z,27.03
2018-07-19T06:21:13.075Z,27.02
2018-07-19T06:23:40.938Z,26.91
2018-07-19T06:26:08.813Z,26.33
2018-07-19T06:28:36.695Z,26.31
2018-07-19T06:31:04.587Z,25.84
2018-07-19T06:33:32.522Z,25.88
2018-07-19T06:36:00.409Z,26.48
2018-07-19T06:38:28.249Z,26.38
2018-07-19T06:40:56.129Z,26.99
2018-07-19T06:43:24.106Z,29.61
2018-07-19T06:45:52.053Z,30.39
2018-07-19T06:48:19.912Z,31.44
2018-07-19T06:50:47.790Z,30.06
2018-07-19T06:53:15.653Z,30.11
2018-07-19T06:55:43.523Z,30.53
2018-07-19T06:58:11.484Z,30.04
2018-07-19T07:00:39.353Z,31.29
2018-07-19T07:03:07.243Z,30.52
2018-07-19T07:05:35.277Z,30.84
2018-07-19T07:08:03.227Z,30.12
2018-07-19T07:10:31.169Z,29.20
2018-07-19T07:12:59.034Z,29.16
2018-07-19T07:15:26.945Z,29.59
2018-07-19T07:17:54.845Z,30.72
2018-07-19T07:20:22.745Z,31.99
2018-07-19T07:22:50.761Z,32.49
2018-07-19T07:25:18.642Z,30.56
2018-07-19T07:27:46.558Z,30.19
2018-07-19T07:30:14.428Z,29.26
2018-07-19T07:32:42.353Z,28.57
2018-07-19T07:35:10.358Z,28.22
2018-07-19T07:37:38.545Z,29.17
2018-07-19T07:40:06.613Z,29.25
2018-07-19T07:42:34.558Z,29.00
2018-07-19T07:45:02.520Z,29.12
2018-07-19T07:47:30.486Z,28.76
2018-07-19T07:49:58.371Z,29.22
2018-07-19T07:52:26.633Z,29.70
2018-07-19T07:54:54.497Z,28.44
2018-07-19T07:57:22.689Z,29.05
2018-07-19T07:59:50.766Z,28.91
2018-07-19T08:02:18.636Z,28.01
2018-07-19T08:04:46.499Z,28.76
2018-07-19T08:07:14.375Z,29.11
2018-07-19T08:09:42.257Z,28.86
2018-07-19T08:12:10.163Z,29.37
2018-07-19T08:14:38.049Z,29.75
2018-07-19T08:17:06.014Z,29.73
2018-07-19T08:19:33.862Z,30.01
2018-07-19T08:22:01.749Z,30.06
2018-07-19T08:24:29.713Z,30.38
2018-07-19T08:26:57.655Z,30.22
2018-07-19T08:29:25.586Z,29.87
2018-07-19T08:31:53.459Z,28.95
2018-07-19T08:34:21.737Z,29.50
2018-07-19T08:36:49.597Z,29.79
2018-07-19T08:39:17.570Z,30.34
2018-07-19T08:41:45.523Z,29.97
2018-07-19T08:44:13.436Z,29.53
2018-07-19T08:46:41.345Z,29.66
2018-07-19T08:49:09.443Z,30.37
2018-07-19T08:51:37.613Z,29.30
2018-07-19T08:54:05.606Z,28.73
2018-07-19T08:56:33.598Z,29.90
2018-07-19T08:59:01.471Z,30.18
2018-07-19T09:01:29.428Z,29.33
2018-07-19T09:03:57.380Z,29.88
2018-07-19T09:06:25.242Z,30.08
2018-07-19T09:08:53.119Z,29.84
2018-07-19T09:11:20.988Z,29.56
2018-07-19T09:13:49.275Z,29.30
2018-07-19T09:16:17.236Z,29.50
2018-07-19T09:18:45.119Z,29.31
2018-07-19T09:21:13.017Z,30.25
2018-07-19T09:23:40.961Z,31.09
2018-07-19T09:26:09.203Z,30.14
2018-07-19T09:28:37.117Z,28.67
2018-07-19T09:31:05.189Z,29.03
2018-07-19T09:33:33.106Z,28.85
2018-07-19T09:36:01.791Z,29.06
2018-07-19T09:38:29.713Z,29.04
2018-07-19T09:40:57.609Z,29.84
2018-07-19T09:43:25.937Z,30.38
2018-07-19T09:45:53.783Z,29.70
2018-07-19T09:48:21.682Z,29.87
2018-07-19T09:50:49.899Z,29.57
2018-07-19T09:53:17.885Z,29.48
2018-07-19T09:55:45.784Z,29.81
2018-07-19T09:58:13.653Z,30.66
2018-07-19T10:00:47.059Z,31.21
2018-07-19T10:03:14.992Z,30.55
2018-07-19T10:05:42.901Z,31.66
2018-07-19T10:08:10.810Z,31.82
2018-07-19T10:10:38.752Z,31.26
2018-07-19T10:13:06.670Z,31.18
2018-07-19T10:15:34.587Z,31.99
2018-07-19T10:20:35.899Z,30.94
2018-07-19T10:23:03.889Z,30.09
2018-07-19T10:25:31.811Z,30.81
2018-07-19T10:27:59.641Z,30.96
2018-07-19T10:30:27.562Z,31.03
2018-07-19T10:32:55.463Z,31.17
2018-07-19T10:35:23.390Z,29.95
2018-07-19T10:37:51.274Z,30.19
2018-07-19T10:40:19.159Z,29.34
2018-07-19T10:42:47.011Z,30.19
2018-07-19T10:45:14.877Z,30.12
2018-07-19T10:47:42.840Z,30.53
2018-07-19T10:50:10.754Z,31.04
2018-07-19T10:52:38.646Z,31.64
2018-07-19T10:55:06.520Z,32.01
2018-07-19T10:57:34.462Z,33.35
2018-07-19T11:00:02.334Z,32.36
2018-07-19T11:02:30.214Z,33.68
2018-07-19T11:04:58.082Z,32.06
2018-07-19T11:07:25.985Z,31.50
2018-07-19T11:09:53.852Z,31.03
2018-07-19T11:12:21.823Z,32.08
2018-07-19T11:14:49.779Z,31.92
2018-07-19T11:17:17.691Z,31.31
2018-07-19T11:19:45.555Z,32.26
2018-07-19T11:22:13.434Z,32.25
2018-07-19T11:24:41.321Z,32.32
2018-07-19T11:27:09.319Z,31.66
2018-07-19T11:29:37.228Z,31.90
2018-07-19T11:32:05.178Z,31.40
2018-07-19T11:34:33.068Z,31.41
2018-07-19T11:37:00.902Z,30.26
2018-07-19T11:39:29.038Z,30.40
2018-07-19T11:41:56.945Z,30.74
2018-07-19T11:44:24.862Z,31.45
2018-07-19T11:46:52.802Z,31.53
2018-07-19T11:49:20.725Z,30.91
2018-07-19T11:51:49.057Z,31.44
2018-07-19T11:54:16.948Z,31.72
2018-07-19T11:56:44.853Z,31.23
2018-07-19T11:59:12.779Z,31.33
2018-07-19T12:01:40.657Z,31.30
2018-07-19T12:04:08.593Z,31.04
2018-07-19T12:06:36.441Z,31.02
2018-07-19T12:09:07.290Z,31.08
2018-07-19T12:11:35.193Z,30.62
2018-07-19T12:14:03.825Z,30.32
2018-07-19T12:16:31.690Z,30.86
2018-07-19T12:19:00.669Z,30.24
2018-07-19T12:21:28.620Z,30.19
2018-07-19T12:23:56.720Z,29.92
2018-07-19T12:26:24.558Z,29.85
2018-07-19T12:28:52.893Z,30.14
2018-07-19T12:31:20.867Z,31.07
2018-07-19T12:33:48.954Z,30.80
2018-07-19T12:36:16.881Z,31.10
2018-07-19T12:38:44.755Z,30.85
2018-07-19T12:41:12.633Z,31.76
2018-07-19T12:43:40.521Z,32.62
2018-07-19T12:46:08.719Z,32.52
2018-07-19T12:48:36.598Z,32.94
2018-07-19T12:51:04.824Z,33.25
2018-07-19T12:53:32.752Z,32.44
2018-07-19T12:56:00.624Z,32.69
2018-07-19T12:58:28.553Z,32.53
2018-07-19T13:00:56.384Z,32.51
2018-07-19T13:03:24.221Z,32.47
2018-07-19T13:05:52.102Z,32.43
2018-07-19T13:08:20.015Z,32.66
2018-07-19T13:10:47.938Z,33.32
2018-07-19T13:13:15.777Z,32.40
2018-07-19T13:15:43.651Z,31.64
2018-07-19T13:18:11.489Z,31.82
2018-07-19T13:20:39.322Z,31.10
2018-07-19T13:23:07.215Z,31.11
2018-07-19T13:25:35.034Z,30.65
2018-07-19T13:28:02.900Z,31.23
2018-07-19T13:30:30.771Z,31.28
2018-07-19T13:32:58.630Z,30.43
2018-07-19T13:35:26.553Z,30.47
2018-07-19T13:37:54.416Z,30.38
2018-07-19T13:40:23.194Z,29.47
2018-07-19T13:42:51.303Z,29.71
2018-07-19T13:45:19.234Z,29.28
2018-07-19T13:47:47.113Z,29.42
2018-07-19T13:50:14.950Z,29.47
2018-07-19T13:52:53.931Z,29.94
2018-07-19T13:55:21.773Z,29.76
2018-07-19T13:57:49.606Z,30.39
2018-07-19T14:00:17.839Z,30.78
2018-07-19T14:02:46.852Z,30.41
2018-07-19T14:05:14.731Z,31.00
2018-07-19T14:07:42.617Z,30.85
2018-07-19T14:10:10.573Z,31.31
2018-07-19T14:12:38.413Z,30.51
2018-07-19T14:15:06.319Z,31.12
2018-07-19T14:17:34.203Z,30.98
2018-07-19T14:20:02.182Z,32.11
2018-07-19T14:22:30.073Z,31.67
2018-07-19T14:24:57.932Z,31.34
2018-07-19T14:27:25.839Z,31.44
2018-07-19T14:29:53.796Z,31.77
2018-07-19T14:32:22.006Z,31.67
2018-07-19T14:34:49.865Z,30.84
2018-07-19T14:37:17.737Z,30.99
2018-07-19T14:39:46.005Z,30.84
2018-07-19T14:42:13.882Z,30.86
2018-07-19T14:44:41.768Z,30.27
2018-07-19T14:47:09.630Z,30.41
2018-07-19T14:49:37.576Z,30.64
2018-07-19T14:52:05.802Z,30.14
2018-07-19T14:54:33.682Z,30.12
2018-07-19T14:57:01.566Z,30.66
2018-07-19T14:59:29.437Z,30.78
2018-07-19T15:01:57.321Z,31.34
2018-07-19T15:04:25.190Z,30.50
2018-07-19T15:06:53.086Z,30.11
2018-07-19T15:09:21.224Z,29.90
2018-07-19T15:11:49.099Z,29.35
2018-07-19T15:14:16.991Z,29.24
2018-07-19T15:16:44.829Z,29.13
2018-07-19T15:19:12.674Z,28.87
2018-07-19T15:21:40.899Z,28.32
2018-07-19T15:24:08.747Z,27.60
2018-07-19T15:26:36.696Z,27.60
2018-07-19T15:29:04.853Z,27.50
2018-07-19T15:31:32.697Z,27.45
2018-07-19T15:34:00.758Z,26.98
2018-07-19T15:36:28.589Z,26.73
2018-07-19T15:38:56.413Z,26.73
2018-07-19T15:41:24.293Z,27.15
2018-07-19T15:43:52.117Z,27.35
2018-07-19T15:46:19.926Z,27.44
2018-07-19T15:48:47.757Z,27.69
2018-07-19T15:51:15.610Z,27.62
2018-07-19T15:53:43.449Z,27.70
2018-07-19T15:56:11.280Z,27.79
2018-07-19T15:58:39.155Z,27.85
2018-07-19T16:01:06.966Z,27.68
2018-07-19T16:03:34.790Z,27.44
2018-07-19T16:06:02.721Z,27.70
2018-07-19T16:08:30.679Z,27.80
2018-07-19T16:10:58.544Z,27.42
2018-07-19T16:13:26.446Z,26.97
2018-07-19T16:15:54.316Z,26.34
2018-07-19T16:18:22.277Z,26.72
2018-07-19T16:20:50.155Z,27.03
2018-07-19T16:23:18.076Z,27.01
2018-07-19T16:25:45.984Z,27.07
2018-07-19T16:28:13.900Z,27.85
2018-07-19T16:30:41.790Z,27.35
2018-07-19T16:33:09.701Z,27.64
2018-07-19T16:35:37.565Z,27.45
2018-07-19T16:38:05.588Z,27.62
2018-07-19T16:40:33.526Z,27.90
2018-07-19T16:43:01.452Z,27.72
2018-07-19T16:45:29.316Z,27.85
2018-07-19T16:47:57.205Z,27.75
2018-07-19T16:50:25.066Z,27.38
2018-07-19T16:52:52.982Z,27.52
2018-07-19T16:55:20.935Z,27.60
2018-07-19T16:57:48.812Z,27.40
2018-07-19T17:00:16.629Z,27.26
2018-07-19T17:02:44.538Z,27.22
2018-07-19T17:05:12.393Z,27.08
2018-07-19T17:07:40.721Z,27.50
2018-07-19T17:10:08.717Z,27.43
2018-07-19T17:12:36.701Z,27.27
2018-07-19T17:15:05.113Z,26.97
2018-07-19T17:17:33.050Z,27.23
2018-07-19T17:20:00.925Z,27.21
2018-07-19T17:22:28.798Z,27.27
2018-07-19T17:24:56.677Z,27.15
2018-07-19T17:27:24.574Z,26.96
2018-07-19T17:29:52.490Z,27.11
2018-07-19T17:32:20.418Z,27.10
2018-07-19T17:34:48.286Z,27.55
2018-07-19T17:37:16.174Z,27.55
2018-07-19T17:39:44.145Z,27.64
2018-07-19T17:42:12.030Z,27.34
2018-07-19T17:44:39.928Z,27.79
2018-07-19T17:47:07.825Z,27.69
2018-07-19T17:49:35.739Z,27.57
2018-07-19T17:52:03.687Z,27.45
2018-07-19T17:54:31.581Z,27.43
2018-07-19T17:56:59.435Z,27.29
2018-07-19T17:59:27.325Z,27.40
2018-07-19T18:01:55.215Z,27.50
2018-07-19T18:04:23.117Z,27.19
2018-07-19T18:06:51.022Z,26.90
2018-07-19T18:09:18.913Z,27.01
2018-07-19T18:11:46.755Z,26.84
2018-07-19T18:14:14.617Z,26.63
2018-07-19T18:16:42.570Z,27.02
2018-07-19T18:19:10.424Z,27.12
2018-07-19T18:21:38.287Z,27.15
2018-07-19T18:24:06.165Z,26.85
2018-07-19T18:26:34.109Z,27.23
2018-07-19T18:29:01.957Z,26.57
2018-07-19T18:31:30.173Z,26.69
2018-07-19T18:33:58.030Z,26.92
2018-07-19T18:36:25.873Z,26.70
2018-07-19T18:38:53.830Z,26.62
2018-07-19T18:41:21.718Z,26.32
2018-07-19T18:43:49.598Z,26.15
2018-07-19T18:46:17.514Z,25.94
2018-07-19T18:48:45.417Z,25.84
2018-07-19T18:51:13.354Z,25.47
2018-07-19T18:53:41.198Z,25.23
2018-07-19T18:56:09.079Z,25.67
2018-07-19T18:58:36.938Z,25.55
2018-07-19T19:01:04.877Z,25.65
2018-07-19T19:03:32.741Z,25.76
2018-07-19T19:06:00.611Z,25.67
2018-07-19T19:08:28.436Z,25.92
2018-07-19T19:10:56.269Z,25.77
2018-07-19T19:13:24.310Z,25.82
2018-07-19T19:15:52.193Z,25.60
2018-07-19T19:18:20.173Z,25.90
2018-07-19T19:20:49.300Z,25.89
2018-07-19T19:23:17.392Z,25.72
2018-07-19T19:25:45.330Z,25.96
2018-07-19T19:28:13.173Z,26.10
2018-07-19T19:30:41.055Z,25.65
2018-07-19T19:33:09.036Z,26.09
2018-07-19T19:35:36.980Z,25.99
2018-07-19T19:38:05.317Z,26.14
2018-07-19T19:40:33.225Z,26.00
2018-07-19T19:43:01.136Z,26.16
2018-07-19T19:45:29.052Z,26.12
2018-07-19T19:47:57.962Z,25.93
2018-07-19T19:50:25.808Z,25.92
2018-07-19T19:52:53.716Z,24.97
2018-07-19T19:55:21.642Z,24.65
2018-07-19T19:57:49.553Z,24.50
2018-07-19T20:00:17.452Z,24.45
2018-07-19T20:02:45.401Z,24.35
2018-07-19T20:05:13.273Z,24.01
2018-07-19T20:07:41.201Z,24.10
2018-07-19T20:10:09.075Z,24.11
2018-07-19T20:12:37.029Z,24.19
2018-07-19T20:15:05.216Z,24.08
2018-07-19T20:17:33.106Z,23.96
2018-07-19T20:20:01.033Z,24.04
2018-07-19T20:22:28.950Z,24.21
2018-07-19T20:24:56.877Z,24.39
2018-07-19T20:27:24.808Z,24.32
2018-07-19T20:29:52.668Z,24.44
2018-07-19T20:32:20.616Z,24.36
2018-07-19T20:34:48.489Z,24.83
2018-07-19T20:37:16.373Z,25.08
2018-07-19T20:39:44.342Z,24.98
2018-07-19T20:42:12.208Z,24.99
2018-07-19T20:44:40.085Z,24.73
2018-07-19T20:47:08.008Z,24.82
2018-07-19T20:49:35.873Z,24.30
2018-07-19T20:52:03.802Z,23.56
2018-07-19T20:54:31.626Z,23.03
2018-07-19T20:56:59.454Z,22.82
2018-07-19T20:59:27.272Z,22.68
2018-07-19T21:01:55.089Z,22.35
2018-07-19T21:04:22.957Z,22.40
2018-07-19T21:06:50.793Z,22.47
2018-07-19T21:09:18.617Z,22.46
2018-07-19T21:11:46.438Z,22.79
2018-07-19T21:14:20.982Z,22.47
2018-07-19T21:16:48.850Z,22.67
2018-07-19T21:19:16.682Z,22.60
2018-07-19T21:21:44.511Z,22.78
2018-07-19T21:24:12.333Z,22.90
2018-07-19T21:26:40.289Z,22.90
2018-07-19T21:29:08.121Z,22.79
2018-07-19T21:31:35.968Z,22.79
2018-07-19T21:34:03.833Z,22.99
2018-07-19T21:36:31.666Z,22.84
2018-07-19T21:38:59.483Z,22.87
2018-07-19T21:41:27.325Z,22.91
2018-07-19T21:43:55.566Z,22.84
2018-07-19T21:46:23.404Z,22.72
2018-07-19T21:48:51.246Z,22.70
2018-07-19T21:51:19.069Z,22.76
2018-07-19T21:53:46.925Z,22.77
2018-07-19T21:58:48.122Z,22.89
2018-07-19T22:01:15.933Z,23.01
2018-07-19T22:03:43.717Z,22.81
2018-07-19T22:06:11.577Z,22.92
2018-07-19T22:08:39.393Z,23.01
2018-07-19T22:11:07.279Z,23.12
2018-07-19T22:13:35.154Z,23.20
2018-07-19T22:16:03.026Z,23.21
2018-07-19T22:18:30.869Z,23.31
2018-07-19T22:20:58.726Z,23.12
2018-07-19T22:23:30.318Z,23.26
2018-07-19T22:25:58.570Z,23.18
2018-07-19T22:28:26.412Z,23.12
2018-07-19T22:30:54.258Z,23.30
2018-07-19T22:33:22.109Z,23.37
2018-07-19T22:35:50.034Z,23.33
2018-07-19T22:38:17.883Z,23.43
2018-07-19T22:40:45.717Z,23.22
2018-07-19T22:43:13.573Z,23.46
2018-07-19T22:45:41.439Z,23.56
2018-07-19T22:48:09.300Z,23.31
2018-07-19T22:50:37.136Z,23.25
2018-07-19T22:53:04.993Z,23.24
2018-07-19T22:55:32.838Z,23.19
2018-07-19T22:58:00.662Z,23.22
2018-07-19T23:00:28.469Z,23.21
2018-07-19T23:02:56.341Z,23.32
2018-07-19T23:05:24.189Z,23.54
2018-07-19T23:07:52.030Z,23.36
2018-07-19T23:10:19.917Z,23.50
2018-07-19T23:12:47.730Z,23.40
2018-07-19T23:15:15.549Z,23.45
2018-07-19T23:17:43.338Z,23.55
2018-07-19T23:20:11.179Z,23.46
2018-07-19T23:22:39.033Z,23.84
2018-07-19T23:25:06.818Z,23.61
2018-07-19T23:27:34.725Z,23.66
2018-07-19T23:30:02.648Z,23.47
2018-07-19T23:32:30.565Z,23.78
2018-07-19T23:34:58.519Z,23.85
2018-07-19T23:37:30.897Z,23.94
2018-07-19T23:40:01.634Z,23.99
2018-07-19T23:42:47.346Z,23.87
2018-07-19T23:45:24.598Z,23.95
2018-07-19T23:47:53.082Z,23.73
2018-07-19T23:50:20.916Z,23.62
2018-07-19T23:52:48.782Z,23.63
2018-07-19T23:55:16.649Z,23.78
2018-07-19T23:57:44.647Z,23.78
